Time;durP1;ratioP1;P1;durP2;ratioP2;P2;SDS_P1;SDS_P2;PMS_P1;PMS_P2;Temp;Humidity;BMP_temperature;BMP_pressure;BME280_temperature;BME280_humidity;BME280_pressure;Samples;Min_cycle;Max_cycle;Signal;HPM_P1;HPM_P2
2022/01/31 00:00:13;;;;;;;20.13;6.77;;;;;;;;;;4954878;28;20216;-62
2022/01/31 00:02:44;;;;;;;15.77;6.10;;;;;;;;;;4957980;28;20219;-63
2022/01/31 00:05:12;;;;;;;15.10;6.20;;;;;;;;;;4947899;28;20219;-65
2022/01/31 00:07:39;;;;;;;14.63;7.23;;;;;;;;;;4954224;28;20306;-64
2022/01/31 00:10:10;;;;;;;13.00;6.60;;;;;;;;;;4949868;28;20224;-63
2022/01/31 00:15:26;;;;;;;16.30;6.37;;;;;;;;;;4950671;28;20244;-65
2022/01/31 00:17:53;;;;;;;12.60;5.97;;;;;;;;;;4953052;28;20259;-63
2022/01/31 00:20:22;;;;;;;14.63;5.97;;;;;;;;;;4951840;28;20227;-64
2022/01/31 00:22:49;;;;;;;11.07;6.20;;;;;;;;;;4953071;28;20211;-64
2022/01/31 00:25:17;;;;;;;20.10;7.27;;;;;;;;;;4950456;28;20226;-63
2022/01/31 00:27:44;;;;;;;16.87;6.67;;;;;;;;;;4953518;28;20600;-63
2022/01/31 00:30:12;;;;;;;15.70;6.23;;;;;;;;;;4949037;28;20232;-64
2022/01/31 00:32:39;;;;;;;17.00;6.60;;;;;;;;;;4955314;28;20800;-63
2022/01/31 00:35:07;;;;;;;15.50;6.07;;;;;;;;;;4948542;28;20220;-63
2022/01/31 00:37:35;;;;;;;20.53;5.60;;;;;;;;;;4949320;28;20355;-62
2022/01/31 00:40:05;;;;;;;16.40;6.10;;;;;;;;;;4951662;28;20698;-63
2022/01/31 00:42:33;;;;;;;10.87;5.70;;;;;;;;;;4950213;28;20236;-62
2022/01/31 00:47:44;;;;;;;14.33;5.60;;;;;;;;;;4947094;28;20227;-64
2022/01/31 00:50:13;;;;;;;12.83;5.67;;;;;;;;;;4949447;28;20209;-64
2022/01/31 00:52:41;;;;;;;10.93;5.57;;;;;;;;;;4947158;28;20212;-64
2022/01/31 00:55:09;;;;;;;14.93;5.47;;;;;;;;;;4951433;28;20223;-64
2022/01/31 00:57:36;;;;;;;13.80;5.83;;;;;;;;;;4956824;28;20209;-64
2022/01/31 01:00:05;;;;;;;16.43;5.90;;;;;;;;;;4947601;28;20205;-63
2022/01/31 01:02:32;;;;;;;18.30;5.83;;;;;;;;;;4951035;28;20284;-63
2022/01/31 01:05:00;;;;;;;15.60;5.43;;;;;;;;;;4950124;28;20214;-61
2022/01/31 01:07:27;;;;;;;15.10;5.43;;;;;;;;;;4955462;28;20209;-64
2022/01/31 01:09:55;;;;;;;15.93;6.43;;;;;;;;;;4952134;28;20213;-64
2022/01/31 01:12:22;;;;;;;14.60;5.50;;;;;;;;;;4955785;28;20216;-64
2022/01/31 01:14:50;;;;;;;9.10;5.03;;;;;;;;;;4949552;28;20206;-63
2022/01/31 01:17:17;;;;;;;9.80;5.53;;;;;;;;;;4954987;28;20233;-63
2022/01/31 01:19:45;;;;;;;15.40;6.20;;;;;;;;;;4953370;28;20259;-63
2022/01/31 01:22:12;;;;;;;14.63;6.03;;;;;;;;;;4949307;28;20229;-62
2022/01/31 01:24:40;;;;;;;17.60;5.83;;;;;;;;;;4964172;28;20729;-64
2022/01/31 01:27:09;;;;;;;12.37;6.23;;;;;;;;;;4955347;28;20276;-63
2022/01/31 01:29:36;;;;;;;13.83;5.50;;;;;;;;;;4951761;28;20220;-64
2022/01/31 01:32:04;;;;;;;13.00;5.17;;;;;;;;;;4952608;28;20228;-62
2022/01/31 01:34:33;;;;;;;14.53;4.73;;;;;;;;;;4962558;28;20855;-63
2022/01/31 01:37:01;;;;;;;18.93;7.13;;;;;;;;;;4948969;28;20234;-63
2022/01/31 01:39:28;;;;;;;26.27;11.67;;;;;;;;;;4948156;28;20201;-63
2022/01/31 01:41:56;;;;;;;22.67;9.60;;;;;;;;;;4953093;28;20228;-64
2022/01/31 01:44:43;;;;;;;80.60;29.50;;;;;;;;;;4949335;28;20204;-63
2022/01/31 01:47:10;;;;;;;33.43;13.70;;;;;;;;;;4949724;28;20284;-64
2022/01/31 01:49:38;;;;;;;24.43;9.63;;;;;;;;;;4946408;28;20280;-63
2022/01/31 01:52:06;;;;;;;65.00;22.07;;;;;;;;;;4953256;28;20224;-63
2022/01/31 01:54:33;;;;;;;40.83;14.40;;;;;;;;;;4943412;28;20213;-62
2022/01/31 01:57:03;;;;;;;12.00;5.00;;;;;;;;;;4950508;28;20280;-64
2022/01/31 01:59:35;;;;;;;22.97;10.03;;;;;;;;;;4956152;28;20216;-64
2022/01/31 02:02:03;;;;;;;27.00;12.00;;;;;;;;;;4951436;28;20643;-62
2022/01/31 02:04:31;;;;;;;14.40;7.23;;;;;;;;;;4949484;28;20209;-62
2022/01/31 02:06:59;;;;;;;22.57;8.97;;;;;;;;;;4950597;28;20219;-64
2022/01/31 02:09:29;;;;;;;16.73;7.60;;;;;;;;;;4957536;28;20213;-64
2022/01/31 02:11:57;;;;;;;28.90;11.87;;;;;;;;;;4966264;28;20231;-64
2022/01/31 02:14:25;;;;;;;30.70;13.20;;;;;;;;;;4955677;28;20299;-65
2022/01/31 02:16:53;;;;;;;12.70;5.10;;;;;;;;;;4951096;28;20247;-65
2022/01/31 02:19:22;;;;;;;16.07;9.50;;;;;;;;;;4953630;28;20267;-65
2022/01/31 02:21:50;;;;;;;10.43;5.63;;;;;;;;;;4954386;28;20233;-64
2022/01/31 02:24:18;;;;;;;13.17;5.63;;;;;;;;;;4958543;28;20236;-64
2022/01/31 02:26:46;;;;;;;18.20;5.93;;;;;;;;;;4964251;28;20209;-64
2022/01/31 02:29:13;;;;;;;15.70;5.83;;;;;;;;;;4954015;28;20617;-65
2022/01/31 02:31:44;;;;;;;18.97;10.37;;;;;;;;;;4947482;28;20244;-63
2022/01/31 02:34:12;;;;;;;12.93;5.03;;;;;;;;;;4954332;28;20300;-63
2022/01/31 02:36:39;;;;;;;16.43;9.73;;;;;;;;;;4951031;28;20295;-61
2022/01/31 02:39:08;;;;;;;16.20;9.07;;;;;;;;;;4952185;28;20324;-65
2022/01/31 02:41:42;;;;;;;16.93;7.93;;;;;;;;;;4956903;28;20235;-64
2022/01/31 02:44:15;;;;;;;8.93;6.03;;;;;;;;;;4959478;28;20339;-64
2022/01/31 02:46:52;;;;;;;13.70;7.33;;;;;;;;;;4957186;28;20209;-64
2022/01/31 02:49:23;;;;;;;10.50;5.67;;;;;;;;;;4957804;28;20213;-64
2022/01/31 02:52:01;;;;;;;10.33;5.03;;;;;;;;;;4962383;28;20236;-63
2022/01/31 02:54:32;;;;;;;12.00;5.30;;;;;;;;;;4965913;28;20216;-62
2022/01/31 02:56:59;;;;;;;7.87;4.53;;;;;;;;;;4956553;28;20244;-64
2022/01/31 02:59:27;;;;;;;12.87;5.07;;;;;;;;;;4959257;28;20217;-63
2022/01/31 03:01:54;;;;;;;10.90;5.10;;;;;;;;;;4948547;28;20248;-64
2022/01/31 03:04:22;;;;;;;10.60;5.07;;;;;;;;;;4958860;28;20205;-64
2022/01/31 03:06:50;;;;;;;12.47;4.70;;;;;;;;;;4953930;28;20216;-64
2022/01/31 03:09:17;;;;;;;9.13;4.70;;;;;;;;;;4958061;28;20209;-65
2022/01/31 03:11:45;;;;;;;13.27;5.43;;;;;;;;;;4950266;28;20235;-65
2022/01/31 03:14:16;;;;;;;10.40;5.23;;;;;;;;;;4955442;28;20299;-64
2022/01/31 03:16:44;;;;;;;11.57;5.03;;;;;;;;;;4964256;28;20228;-63
2022/01/31 03:19:13;;;;;;;12.17;5.43;;;;;;;;;;4957909;28;20671;-64
2022/01/31 03:21:41;;;;;;;9.00;4.90;;;;;;;;;;4960501;28;20236;-65
2022/01/31 03:24:08;;;;;;;18.67;5.83;;;;;;;;;;4967389;28;20259;-63
2022/01/31 03:26:37;;;;;;;11.07;5.93;;;;;;;;;;4959674;28;20675;-64
2022/01/31 03:29:05;;;;;;;9.97;5.20;;;;;;;;;;4965742;28;20291;-64
2022/01/31 03:31:33;;;;;;;11.27;5.10;;;;;;;;;;4964333;28;20229;-66
2022/01/31 03:34:00;;;;;;;10.87;5.27;;;;;;;;;;4966190;28;20220;-63
2022/01/31 03:36:27;;;;;;;13.47;5.90;;;;;;;;;;4957182;28;20263;-64
2022/01/31 03:38:55;;;;;;;13.17;5.87;;;;;;;;;;4959927;28;20260;-65
2022/01/31 03:41:23;;;;;;;11.77;5.67;;;;;;;;;;4961982;28;20327;-64
2022/01/31 03:43:51;;;;;;;9.37;4.93;;;;;;;;;;4966104;28;20629;-64
2022/01/31 03:46:18;;;;;;;14.00;5.67;;;;;;;;;;4968827;28;21090;-65
2022/01/31 03:48:46;;;;;;;9.93;4.53;;;;;;;;;;4968361;28;20784;-65
2022/01/31 03:51:14;;;;;;;9.50;4.93;;;;;;;;;;4953172;28;20241;-64
2022/01/31 03:53:41;;;;;;;9.83;4.33;;;;;;;;;;4963681;28;20244;-64
2022/01/31 03:56:08;;;;;;;11.40;4.27;;;;;;;;;;4961726;28;20240;-63
2022/01/31 03:58:36;;;;;;;9.30;4.63;;;;;;;;;;4959642;28;20212;-64
2022/01/31 04:01:04;;;;;;;12.43;4.80;;;;;;;;;;4973413;28;20278;-65
2022/01/31 04:03:32;;;;;;;11.53;4.70;;;;;;;;;;4964954;28;20210;-64
2022/01/31 04:06:00;;;;;;;10.00;4.30;;;;;;;;;;4967943;28;20241;-63
2022/01/31 04:08:27;;;;;;;12.03;4.10;;;;;;;;;;4961636;28;20207;-64
2022/01/31 04:10:54;;;;;;;11.07;4.50;;;;;;;;;;4966622;28;20227;-65
2022/01/31 04:13:22;;;;;;;10.70;4.13;;;;;;;;;;4973845;28;20212;-64
2022/01/31 04:15:49;;;;;;;7.83;4.07;;;;;;;;;;4958537;28;20209;-63
2022/01/31 04:18:16;;;;;;;18.07;4.33;;;;;;;;;;4953671;28;20560;-64
2022/01/31 04:20:44;;;;;;;10.07;3.87;;;;;;;;;;4960601;28;20292;-64
2022/01/31 04:23:17;;;;;;;9.47;3.87;;;;;;;;;;4962460;28;20219;-65
2022/01/31 04:30:55;;;;;;;13.93;4.63;;;;;;;;;;4960253;28;20270;-64
2022/01/31 04:33:23;;;;;;;8.90;3.57;;;;;;;;;;4950868;28;20251;-64
2022/01/31 04:35:51;;;;;;;8.23;3.53;;;;;;;;;;4966966;28;20200;-64
2022/01/31 04:38:18;;;;;;;10.03;3.87;;;;;;;;;;4965320;28;20315;-64
2022/01/31 04:40:46;;;;;;;8.07;3.50;;;;;;;;;;4962950;28;20237;-63
2022/01/31 04:43:14;;;;;;;5.73;3.10;;;;;;;;;;4962221;28;20209;-65
2022/01/31 04:45:47;;;;;;;7.07;3.17;;;;;;;;;;4952247;28;20208;-65
2022/01/31 04:48:18;;;;;;;8.83;4.23;;;;;;;;;;4957372;28;20209;-64
2022/01/31 04:50:46;;;;;;;12.20;3.10;;;;;;;;;;4970566;28;20231;-64
2022/01/31 04:53:14;;;;;;;6.60;3.60;;;;;;;;;;4953784;28;20216;-65
2022/01/31 04:55:42;;;;;;;5.90;2.97;;;;;;;;;;4955094;28;20208;-64
2022/01/31 04:58:10;;;;;;;6.80;3.13;;;;;;;;;;4950909;28;20236;-63
2022/01/31 05:00:38;;;;;;;8.43;3.20;;;;;;;;;;4952671;28;20232;-67
2022/01/31 05:03:11;;;;;;;10.00;3.93;;;;;;;;;;4954542;28;20207;-63
2022/01/31 05:05:41;;;;;;;11.63;3.77;;;;;;;;;;4959203;28;20967;-64
2022/01/31 05:08:08;;;;;;;13.87;7.50;;;;;;;;;;4964687;28;20237;-65
2022/01/31 05:10:42;;;;;;;10.03;4.37;;;;;;;;;;4961384;28;20236;-65
2022/01/31 05:13:11;;;;;;;5.73;3.73;;;;;;;;;;4966899;28;20253;-65
2022/01/31 05:15:38;;;;;;;9.97;4.53;;;;;;;;;;4969018;28;20228;-63
2022/01/31 05:18:06;;;;;;;11.73;4.30;;;;;;;;;;4965150;28;20339;-65
2022/01/31 05:20:33;;;;;;;9.97;4.43;;;;;;;;;;4972902;28;20225;-64
2022/01/31 05:23:01;;;;;;;7.20;4.30;;;;;;;;;;4974224;28;20260;-65
2022/01/31 05:25:28;;;;;;;9.90;4.03;;;;;;;;;;4970633;28;20251;-65
2022/01/31 05:27:56;;;;;;;15.17;6.17;;;;;;;;;;4966142;28;20263;-63
2022/01/31 05:30:23;;;;;;;19.90;7.93;;;;;;;;;;4950404;28;20271;-64
2022/01/31 05:32:53;;;;;;;8.87;4.87;;;;;;;;;;4955915;28;20502;-64
2022/01/31 05:35:20;;;;;;;10.70;3.97;;;;;;;;;;4968560;28;20204;-65
2022/01/31 05:37:47;;;;;;;7.87;3.47;;;;;;;;;;4966540;28;20227;-63
2022/01/31 05:40:15;;;;;;;6.63;3.50;;;;;;;;;;4967605;28;20567;-65
2022/01/31 05:42:42;;;;;;;8.87;3.10;;;;;;;;;;4959916;28;20216;-65
2022/01/31 05:45:10;;;;;;;8.17;3.57;;;;;;;;;;4965136;28;20205;-65
2022/01/31 05:47:37;;;;;;;6.67;2.80;;;;;;;;;;4967690;28;20216;-64
2022/01/31 05:50:05;;;;;;;8.13;2.90;;;;;;;;;;4969621;28;20267;-64
2022/01/31 05:52:33;;;;;;;6.50;3.23;;;;;;;;;;4972407;28;20242;-64
2022/01/31 05:55:00;;;;;;;9.57;3.27;;;;;;;;;;4969702;28;20268;-65
2022/01/31 05:57:28;;;;;;;7.97;3.20;;;;;;;;;;4963064;28;20233;-66
2022/01/31 05:59:55;;;;;;;7.77;3.27;;;;;;;;;;4963366;28;20668;-64
2022/01/31 06:02:23;;;;;;;7.37;3.03;;;;;;;;;;4966487;28;20228;-63
2022/01/31 06:04:51;;;;;;;10.37;3.13;;;;;;;;;;4961766;28;20223;-63
2022/01/31 06:07:18;;;;;;;8.43;3.37;;;;;;;;;;4965504;28;20659;-64
2022/01/31 06:09:45;;;;;;;6.97;3.00;;;;;;;;;;4964851;28;20217;-65
2022/01/31 06:12:15;;;;;;;10.67;3.73;;;;;;;;;;4966032;28;20319;-65
2022/01/31 06:14:42;;;;;;;11.90;3.20;;;;;;;;;;4971811;28;20622;-64
2022/01/31 06:17:10;;;;;;;9.00;3.07;;;;;;;;;;4970036;28;20237;-65
2022/01/31 06:19:38;;;;;;;8.97;3.03;;;;;;;;;;4962307;28;20367;-62
2022/01/31 06:22:05;;;;;;;8.13;3.50;;;;;;;;;;4966703;28;20223;-65
2022/01/31 06:24:32;;;;;;;7.83;2.77;;;;;;;;;;4969741;28;20209;-64
2022/01/31 06:27:01;;;;;;;8.47;2.97;;;;;;;;;;4963457;28;20586;-63
2022/01/31 06:29:28;;;;;;;8.77;3.57;;;;;;;;;;4964601;28;20228;-65
2022/01/31 06:31:55;;;;;;;4.70;3.13;;;;;;;;;;4965367;28;20233;-65
2022/01/31 06:34:23;;;;;;;8.33;3.30;;;;;;;;;;4962388;28;20213;-63
2022/01/31 06:36:51;;;;;;;5.03;3.03;;;;;;;;;;4970838;28;20723;-64
2022/01/31 06:39:18;;;;;;;7.70;3.30;;;;;;;;;;4970025;28;20717;-62
2022/01/31 06:41:45;;;;;;;14.10;3.77;;;;;;;;;;4969953;28;20224;-64
2022/01/31 06:44:15;;;;;;;7.23;3.20;;;;;;;;;;4959810;28;20209;-65
2022/01/31 06:46:42;;;;;;;8.63;3.47;;;;;;;;;;4963362;28;20204;-63
2022/01/31 06:49:10;;;;;;;7.73;3.43;;;;;;;;;;4961929;28;20741;-63
2022/01/31 06:51:37;;;;;;;7.83;3.50;;;;;;;;;;4970275;28;20232;-63
2022/01/31 06:54:06;;;;;;;9.67;3.67;;;;;;;;;;4968157;28;20208;-64
2022/01/31 06:56:38;;;;;;;7.07;3.60;;;;;;;;;;4974282;28;20871;-64
2022/01/31 06:59:08;;;;;;;11.07;3.87;;;;;;;;;;4970092;28;20295;-63
2022/01/31 07:01:36;;;;;;;6.93;3.63;;;;;;;;;;4972378;28;20721;-64
2022/01/31 07:04:04;;;;;;;10.03;4.00;;;;;;;;;;4964376;28;20210;-64
2022/01/31 07:06:32;;;;;;;10.97;4.07;;;;;;;;;;4960521;28;20217;-65
2022/01/31 07:09:00;;;;;;;10.20;4.07;;;;;;;;;;4965791;28;20208;-63
2022/01/31 07:11:33;;;;;;;8.57;4.40;;;;;;;;;;4974206;28;20264;-63
2022/01/31 07:14:07;;;;;;;6.37;4.03;;;;;;;;;;4978327;28;20196;-63
2022/01/31 07:16:34;;;;;;;8.43;3.90;;;;;;;;;;4971957;28;20252;-65
2022/01/31 07:19:06;;;;;;;9.00;4.63;;;;;;;;;;4965096;28;20224;-63
2022/01/31 07:21:39;;;;;;;10.67;4.30;;;;;;;;;;4974405;28;20228;-62
2022/01/31 07:24:20;;;;;;;9.47;4.27;;;;;;;;;;4971251;28;20603;-63
2022/01/31 07:26:48;;;;;;;10.73;4.37;;;;;;;;;;4965068;28;20202;-65
2022/01/31 07:29:17;;;;;;;9.20;4.90;;;;;;;;;;4969076;28;20260;-65
2022/01/31 07:31:45;;;;;;;5.93;4.07;;;;;;;;;;4963201;28;20311;-63
2022/01/31 07:34:14;;;;;;;9.43;4.50;;;;;;;;;;4969369;28;20208;-62
2022/01/31 07:36:42;;;;;;;10.50;4.40;;;;;;;;;;4960593;28;20738;-63
2022/01/31 07:39:12;;;;;;;9.40;4.13;;;;;;;;;;4958990;28;20311;-63
2022/01/31 07:41:40;;;;;;;8.53;4.27;;;;;;;;;;4963899;28;20229;-63
2022/01/31 07:44:08;;;;;;;4.77;4.07;;;;;;;;;;4972905;28;20667;-65
2022/01/31 07:46:35;;;;;;;5.93;4.53;;;;;;;;;;4968977;28;20300;-65
2022/01/31 07:49:04;;;;;;;5.87;4.73;;;;;;;;;;4966624;28;20754;-64
2022/01/31 07:51:33;;;;;;;6.33;4.13;;;;;;;;;;4974192;28;20709;-63
2022/01/31 07:54:01;;;;;;;6.70;3.90;;;;;;;;;;4973499;28;20260;-63
2022/01/31 07:56:28;;;;;;;4.43;3.80;;;;;;;;;;4965610;28;20212;-63
2022/01/31 07:58:56;;;;;;;5.50;3.50;;;;;;;;;;4960954;28;20233;-64
2022/01/31 08:01:26;;;;;;;4.30;3.67;;;;;;;;;;4965145;28;20220;-62
2022/01/31 08:03:54;;;;;;;5.00;3.40;;;;;;;;;;4961896;28;20204;-64
2022/01/31 08:06:21;;;;;;;5.80;3.60;;;;;;;;;;4961181;28;20216;-63
2022/01/31 08:08:50;;;;;;;6.63;3.17;;;;;;;;;;4961740;28;20208;-62
2022/01/31 08:11:18;;;;;;;4.13;3.40;;;;;;;;;;4951709;28;20240;-63
2022/01/31 08:13:45;;;;;;;5.13;3.30;;;;;;;;;;4952090;28;20220;-64
2022/01/31 08:16:15;;;;;;;5.90;3.37;;;;;;;;;;4958354;28;20214;-63
2022/01/31 08:18:43;;;;;;;5.83;3.70;;;;;;;;;;4968448;28;20226;-63
2022/01/31 08:21:12;;;;;;;4.57;3.77;;;;;;;;;;4968356;28;20240;-64
2022/01/31 08:23:40;;;;;;;8.33;3.50;;;;;;;;;;4962003;28;20208;-63
2022/01/31 08:26:11;;;;;;;4.97;3.17;;;;;;;;;;4960118;28;20208;-63
2022/01/31 08:28:49;;;;;;;3.53;2.80;;;;;;;;;;4958346;28;22583;-62
2022/01/31 08:31:24;;;;;;;4.00;2.80;;;;;;;;;;4958448;28;20240;-63
2022/01/31 08:36:34;;;;;;;2.93;2.20;;;;;;;;;;4962887;28;20220;-64
2022/01/31 08:39:08;;;;;;;3.40;2.83;;;;;;;;;;4967164;28;20412;-63
2022/01/31 08:41:43;;;;;;;4.00;1.87;;;;;;;;;;4965606;28;20228;-63
2022/01/31 08:44:13;;;;;;;2.03;1.83;;;;;;;;;;4959200;28;20217;-63
2022/01/31 08:46:40;;;;;;;2.33;1.60;;;;;;;;;;4965592;28;20216;-63
2022/01/31 08:49:09;;;;;;;3.33;1.70;;;;;;;;;;4967775;28;20216;-63
2022/01/31 08:51:37;;;;;;;2.20;2.03;;;;;;;;;;4972143;28;20233;-62
2022/01/31 08:54:08;;;;;;;4.53;2.20;;;;;;;;;;4964922;28;20213;-62
2022/01/31 08:56:40;;;;;;;2.00;1.90;;;;;;;;;;4970763;28;20215;-63
2022/01/31 08:59:08;;;;;;;2.47;2.33;;;;;;;;;;4964159;28;20828;-62
2022/01/31 09:01:36;;;;;;;1.90;1.80;;;;;;;;;;4966131;28;20246;-64
2022/01/31 09:04:05;;;;;;;3.30;1.97;;;;;;;;;;4956917;28;20263;-64
2022/01/31 09:06:34;;;;;;;4.27;2.10;;;;;;;;;;4965274;28;20336;-63
2022/01/31 09:09:05;;;;;;;2.03;1.60;;;;;;;;;;4966182;28;20714;-63
2022/01/31 09:11:35;;;;;;;1.80;1.70;;;;;;;;;;4966812;28;20241;-63
2022/01/31 09:14:03;;;;;;;1.60;1.50;;;;;;;;;;4968966;28;20217;-63
2022/01/31 09:16:31;;;;;;;2.03;1.80;;;;;;;;;;4961608;28;20291;-62
2022/01/31 09:18:58;;;;;;;1.77;1.67;;;;;;;;;;4963988;28;20237;-63
2022/01/31 09:21:25;;;;;;;1.67;1.40;;;;;;;;;;4961160;28;20224;-64
2022/01/31 09:23:53;;;;;;;1.47;1.40;;;;;;;;;;4967067;28;20228;-63
2022/01/31 09:26:22;;;;;;;1.63;1.53;;;;;;;;;;4956935;28;20224;-62
2022/01/31 09:28:50;;;;;;;4.53;1.80;;;;;;;;;;4965138;28;20301;-63
2022/01/31 09:31:18;;;;;;;1.70;1.60;;;;;;;;;;4969161;28;20595;-64
2022/01/31 09:33:45;;;;;;;1.40;1.40;;;;;;;;;;4965806;28;20212;-64
2022/01/31 09:36:13;;;;;;;1.13;1.13;;;;;;;;;;4966911;28;20224;-63
2022/01/31 09:38:42;;;;;;;1.27;1.20;;;;;;;;;;4979591;28;20708;-63
2022/01/31 09:41:14;;;;;;;26.97;10.03;;;;;;;;;;4964205;28;20284;-63
2022/01/31 09:44:11;;;;;;;31.50;12.33;;;;;;;;;;4965197;28;20216;-62
2022/01/31 09:46:53;;;;;;;20.53;10.47;;;;;;;;;;4958029;28;20215;-64
2022/01/31 09:49:22;;;;;;;10.60;8.17;;;;;;;;;;4974554;28;20216;-64
2022/01/31 09:51:50;;;;;;;4.87;3.70;;;;;;;;;;4967940;28;20237;-64
2022/01/31 09:54:17;;;;;;;16.63;9.47;;;;;;;;;;4966386;28;20216;-63
2022/01/31 09:56:46;;;;;;;4.53;2.70;;;;;;;;;;4973872;28;20256;-63
2022/01/31 09:59:15;;;;;;;5.87;3.40;;;;;;;;;;4970036;28;20298;-64
2022/01/31 10:01:43;;;;;;;6.83;3.70;;;;;;;;;;4969918;28;20228;-64
2022/01/31 10:04:14;;;;;;;6.93;4.00;;;;;;;;;;4999792;28;20189;-64
2022/01/31 10:06:43;;;;;;;10.93;5.60;;;;;;;;;;4974853;28;20255;-64
2022/01/31 10:09:17;;;;;;;10.67;5.20;;;;;;;;;;4970707;28;20271;-63
2022/01/31 10:11:50;;;;;;;7.80;3.40;;;;;;;;;;4969748;28;20256;-63
2022/01/31 10:17:19;;;;;;;3.07;1.70;;;;;;;;;;4963247;28;20264;-62
2022/01/31 10:19:50;;;;;;;4.13;3.33;;;;;;;;;;4962662;28;20236;-64
2022/01/31 10:22:18;;;;;;;5.70;4.13;;;;;;;;;;4972019;28;20295;-63
2022/01/31 10:24:47;;;;;;;7.70;5.00;;;;;;;;;;4973006;28;20216;-63
2022/01/31 10:27:27;;;;;;;2.40;2.20;;;;;;;;;;4973864;28;20543;-63
2022/01/31 10:29:56;;;;;;;11.10;5.07;;;;;;;;;;4971726;28;20208;-64
2022/01/31 10:32:29;;;;;;;5.77;4.33;;;;;;;;;;4960194;28;20243;-63
2022/01/31 10:35:01;;;;;;;3.40;2.30;;;;;;;;;;4967320;28;20218;-64
2022/01/31 10:37:30;;;;;;;3.30;2.30;;;;;;;;;;4959476;28;20600;-65
2022/01/31 10:45:39;;;;;;;4.33;2.57;;;;;;;;;;4964780;28;20232;-66
2022/01/31 10:53:39;;;;;;;2.73;2.30;;;;;;;;;;4972564;28;20212;-65
2022/01/31 10:56:07;;;;;;;1.80;1.70;;;;;;;;;;4970102;28;20469;-63
2022/01/31 10:58:35;;;;;;;4.87;3.43;;;;;;;;;;4964490;28;20226;-65
2022/01/31 11:01:16;;;;;;;2.33;2.13;;;;;;;;;;4978080;28;20227;-63
2022/01/31 11:03:45;;;;;;;6.17;3.50;;;;;;;;;;4963001;28;20690;-63
2022/01/31 11:06:13;;;;;;;6.83;2.83;;;;;;;;;;4962917;28;21155;-63
2022/01/31 11:08:40;;;;;;;3.03;2.30;;;;;;;;;;4967675;28;20208;-63
2022/01/31 11:11:08;;;;;;;2.07;1.87;;;;;;;;;;4964211;28;20237;-63
2022/01/31 11:13:36;;;;;;;5.37;3.77;;;;;;;;;;4976449;28;20624;-62
2022/01/31 11:16:07;;;;;;;8.93;4.23;;;;;;;;;;4977510;28;20200;-63
2022/01/31 11:18:36;;;;;;;1.83;1.73;;;;;;;;;;4966423;28;20213;-63
2022/01/31 11:21:05;;;;;;;6.13;2.40;;;;;;;;;;4967324;28;20572;-65
2022/01/31 11:23:37;;;;;;;4.00;2.20;;;;;;;;;;4962110;28;20259;-64
2022/01/31 11:26:05;;;;;;;2.37;1.80;;;;;;;;;;4964832;28;20213;-64
2022/01/31 11:28:34;;;;;;;1.90;1.80;;;;;;;;;;4960505;28;20209;-65
2022/01/31 11:31:02;;;;;;;2.60;1.90;;;;;;;;;;4965554;28;20228;-65
2022/01/31 11:33:30;;;;;;;1.87;1.77;;;;;;;;;;4963281;28;20296;-63
2022/01/31 11:35:57;;;;;;;1.60;1.50;;;;;;;;;;4959502;28;20213;-65
2022/01/31 11:38:24;;;;;;;5.17;1.90;;;;;;;;;;4958047;28;20229;-63
2022/01/31 11:40:52;;;;;;;1.60;1.50;;;;;;;;;;4958892;28;20233;-64
2022/01/31 11:43:21;;;;;;;1.90;1.73;;;;;;;;;;4958573;28;20209;-63
2022/01/31 11:45:51;;;;;;;1.67;1.57;;;;;;;;;;4948131;28;20619;-64
2022/01/31 11:48:22;;;;;;;2.60;1.70;;;;;;;;;;4950688;28;20271;-64
2022/01/31 11:50:55;;;;;;;1.40;1.20;;;;;;;;;;4949101;28;20241;-64
2022/01/31 11:53:35;;;;;;;4.50;2.10;;;;;;;;;;4944768;28;20340;-63
2022/01/31 11:56:06;;;;;;;2.47;1.73;;;;;;;;;;4954733;28;20219;-64
2022/01/31 11:58:43;;;;;;;4.03;1.70;;;;;;;;;;4943835;28;20291;-63
2022/01/31 12:01:11;;;;;;;3.40;1.70;;;;;;;;;;4952177;28;20228;-63
2022/01/31 12:03:49;;;;;;;1.90;1.50;;;;;;;;;;4947386;28;20224;-63
2022/01/31 12:06:34;;;;;;;6.33;1.90;;;;;;;;;;4950982;28;20611;-64
2022/01/31 12:09:06;;;;;;;3.47;1.80;;;;;;;;;;4953618;28;20260;-63
2022/01/31 12:11:55;;;;;;;1.40;1.30;;;;;;;;;;4954268;28;20710;-64
2022/01/31 12:14:39;;;;;;;2.20;1.80;;;;;;;;;;4953041;28;20212;-63
2022/01/31 12:17:33;;;;;;;6.33;1.70;;;;;;;;;;4942913;28;20205;-64
2022/01/31 12:20:14;;;;;;;4.20;1.67;;;;;;;;;;4948074;28;20228;-63
2022/01/31 12:22:44;;;;;;;4.13;2.77;;;;;;;;;;4946952;28;20208;-64
2022/01/31 12:25:23;;;;;;;4.10;3.00;;;;;;;;;;4951151;28;20212;-64
2022/01/31 12:27:51;;;;;;;4.17;2.27;;;;;;;;;;4949944;28;20296;-65
2022/01/31 12:30:35;;;;;;;3.03;2.30;;;;;;;;;;4947459;28;20228;-63
2022/01/31 12:33:03;;;;;;;6.80;2.87;;;;;;;;;;4953067;28;20679;-63
2022/01/31 12:35:35;;;;;;;4.00;3.30;;;;;;;;;;4951644;28;20272;-64
2022/01/31 12:38:04;;;;;;;6.47;2.20;;;;;;;;;;4953762;28;20585;-64
2022/01/31 12:40:39;;;;;;;5.13;3.23;;;;;;;;;;4949591;28;20219;-63
2022/01/31 12:43:12;;;;;;;4.40;2.80;;;;;;;;;;4952275;28;20659;-65
2022/01/31 12:45:40;;;;;;;5.43;2.40;;;;;;;;;;4943409;28;20213;-62
2022/01/31 12:50:39;;;;;;;4.13;1.73;;;;;;;;;;4948821;28;20229;-63
2022/01/31 12:53:29;;;;;;;3.60;2.60;;;;;;;;;;4949178;28;20232;-63
2022/01/31 12:56:26;;;;;;;2.60;2.17;;;;;;;;;;4949315;28;20696;-63
2022/01/31 12:59:11;;;;;;;3.80;2.57;;;;;;;;;;4948726;28;20243;-63
2022/01/31 13:01:40;;;;;;;4.23;1.93;;;;;;;;;;4948375;28;20601;-64
2022/01/31 13:04:14;;;;;;;3.27;2.47;;;;;;;;;;4952186;28;20217;-63
2022/01/31 13:06:44;;;;;;;2.77;2.40;;;;;;;;;;4952159;28;20975;-63
2022/01/31 13:09:15;;;;;;;5.23;3.03;;;;;;;;;;4949618;28;20240;-63
2022/01/31 13:11:44;;;;;;;4.30;3.33;;;;;;;;;;4954812;28;20248;-64
2022/01/31 13:14:23;;;;;;;5.93;3.97;;;;;;;;;;4979517;28;20201;-64
2022/01/31 13:17:13;;;;;;;10.37;5.43;;;;;;;;;;4952592;28;20316;-63
2022/01/31 13:19:49;;;;;;;7.80;3.20;;;;;;;;;;4949465;28;20264;-63
2022/01/31 13:22:29;;;;;;;6.43;2.97;;;;;;;;;;4949348;28;20714;-64
2022/01/31 13:24:57;;;;;;;5.50;2.57;;;;;;;;;;4950725;28;20204;-63
2022/01/31 13:27:36;;;;;;;5.57;2.23;;;;;;;;;;4951330;28;20224;-64
2022/01/31 13:30:13;;;;;;;5.67;2.87;;;;;;;;;;4952354;28;20221;-63
2022/01/31 13:32:40;;;;;;;4.40;1.97;;;;;;;;;;4951187;28;20223;-64
2022/01/31 13:35:10;;;;;;;4.30;2.57;;;;;;;;;;4947864;28;20631;-63
2022/01/31 13:37:37;;;;;;;4.43;2.23;;;;;;;;;;4949310;28;20221;-63
2022/01/31 13:40:25;;;;;;;6.90;3.87;;;;;;;;;;4950733;28;20727;-63
2022/01/31 13:43:01;;;;;;;12.57;5.37;;;;;;;;;;4950680;28;20688;-63
2022/01/31 13:45:36;;;;;;;10.20;2.93;;;;;;;;;;4951668;28;20240;-64
2022/01/31 13:48:45;;;;;;;3.50;1.67;;;;;;;;;;4953074;28;20675;-63
2022/01/31 13:51:00;;;;;;;2.73;1.77;;;;;;;;;;4952007;28;20772;-63
2022/01/31 13:53:33;;;;;;;3.43;2.13;;;;;;;;;;4954697;28;20209;-62
2022/01/31 13:56:01;;;;;;;4.60;1.90;;;;;;;;;;4950993;28;20746;-63
2022/01/31 13:58:30;;;;;;;3.40;1.40;;;;;;;;;;4946386;28;20211;-64
2022/01/31 14:00:58;;;;;;;2.63;1.40;;;;;;;;;;4947696;28;20904;-63
2022/01/31 14:03:26;;;;;;;3.40;1.70;;;;;;;;;;4950349;28;20208;-64
2022/01/31 14:05:55;;;;;;;2.07;1.70;;;;;;;;;;4954231;28;20276;-63
2022/01/31 14:08:41;;;;;;;3.20;1.60;;;;;;;;;;4954386;28;20590;-63
2022/01/31 14:11:10;;;;;;;2.90;1.60;;;;;;;;;;4953163;28;20228;-64
2022/01/31 14:13:40;;;;;;;1.90;1.40;;;;;;;;;;4951427;28;20216;-63
2022/01/31 14:16:11;;;;;;;1.70;1.40;;;;;;;;;;4949934;28;20659;-63
2022/01/31 14:18:39;;;;;;;2.20;1.30;;;;;;;;;;4948418;28;20219;-63
2022/01/31 14:21:07;;;;;;;1.80;1.70;;;;;;;;;;4950158;28;20233;-63
2022/01/31 14:23:35;;;;;;;2.80;1.60;;;;;;;;;;4951960;28;20275;-64
2022/01/31 14:26:03;;;;;;;2.17;1.57;;;;;;;;;;4951211;28;20205;-64
2022/01/31 14:28:45;;;;;;;1.63;1.50;;;;;;;;;;4953113;28;20210;-64
2022/01/31 14:31:14;;;;;;;1.67;1.57;;;;;;;;;;4954210;28;20512;-63
2022/01/31 14:33:43;;;;;;;4.73;1.80;;;;;;;;;;4954875;28;20247;-63
2022/01/31 14:36:12;;;;;;;3.13;1.90;;;;;;;;;;4952764;28;20212;-63
2022/01/31 14:38:57;;;;;;;2.93;1.53;;;;;;;;;;4949882;28;20217;-64
2022/01/31 14:49:45;;;;;;;4.77;2.63;;;;;;;;;;4951298;28;20211;-64
2022/01/31 14:52:13;;;;;;;6.70;2.67;;;;;;;;;;4956267;28;20251;-63
2022/01/31 14:54:41;;;;;;;7.43;3.50;;;;;;;;;;4950252;28;20720;-63
2022/01/31 14:57:09;;;;;;;2.90;2.57;;;;;;;;;;4951049;28;20224;-63
2022/01/31 14:59:37;;;;;;;4.83;3.27;;;;;;;;;;4960545;28;20233;-63
2022/01/31 15:02:04;;;;;;;6.83;5.17;;;;;;;;;;4959029;28;20246;-64
2022/01/31 15:04:52;;;;;;;3.20;2.37;;;;;;;;;;4958177;28;20264;-64
2022/01/31 15:07:22;;;;;;;5.60;2.07;;;;;;;;;;4953180;28;20205;-63
2022/01/31 15:09:49;;;;;;;4.80;3.93;;;;;;;;;;4954813;28;20299;-63
2022/01/31 15:12:17;;;;;;;3.77;3.43;;;;;;;;;;4954181;28;20264;-63
2022/01/31 15:14:47;;;;;;;5.97;3.47;;;;;;;;;;4948422;28;20862;-64
2022/01/31 15:17:15;;;;;;;4.40;3.17;;;;;;;;;;4953064;28;20221;-63
2022/01/31 15:19:42;;;;;;;3.77;2.27;;;;;;;;;;4957304;28;20768;-64
2022/01/31 15:22:11;;;;;;;1.70;1.60;;;;;;;;;;4963054;28;20228;-62
2022/01/31 15:24:41;;;;;;;2.53;2.20;;;;;;;;;;4948745;28;20312;-63
2022/01/31 15:27:08;;;;;;;4.57;2.63;;;;;;;;;;4947249;28;20213;-63
2022/01/31 15:29:36;;;;;;;3.87;2.60;;;;;;;;;;4948044;28;20592;-63
2022/01/31 15:32:09;;;;;;;5.40;3.10;;;;;;;;;;4945274;28;20241;-63